Hayes Center, Nebraska
Current Conditions -  °F | °C
As of 3:53 AM on Sunday 25 Jan 2015 (Local Time) from KIML Reporting Station
Clear Clear  
Wind Chill: 28°   Ceiling: Unl
Heat Index: 39°   Visibility: 10mi
Dew Point: 23°   Wind: 23mph
Humidity: 53%   Direction: 320°NW
Pressure: 30.02"   Gusts: 32mph
Location:  40.51°N, 101.02°W
Report Text: KIML 250953Z AUTO 32020G28KT 10SM CLR 04/M05 A3002 RMK AO2 PK WND 30031/0906 SLP177 T00391050
Loading
Personal Weather Stations






























Interactive Weather Map New forecast layout! Learn more

10-Day Weather Forecast

Advertisements
Track Severe Weather on mobile